createdAt,value
2022-10-22T00:00:12.319Z,0.00
2022-10-22T00:01:12.275Z,0.00
2022-10-22T00:02:12.258Z,0.00
2022-10-22T00:03:12.521Z,0.00
2022-10-22T00:04:12.348Z,0.00
2022-10-22T00:05:12.236Z,0.00
2022-10-22T00:06:12.964Z,0.00
2022-10-22T00:07:12.215Z,0.00
2022-10-22T00:08:12.161Z,0.00
2022-10-22T00:09:12.257Z,0.00
2022-10-22T00:10:12.357Z,0.00
2022-10-22T00:11:12.996Z,0.00
2022-10-22T00:12:12.214Z,0.00
2022-10-22T00:13:12.077Z,0.00
2022-10-22T00:14:12.079Z,0.00
2022-10-22T00:15:12.143Z,0.00
2022-10-22T00:16:12.388Z,0.00
2022-10-22T00:17:12.027Z,0.00
2022-10-22T00:18:12.118Z,0.00
2022-10-22T00:19:11.995Z,0.00
2022-10-22T00:20:11.995Z,0.00
2022-10-22T00:21:12.176Z,0.00
2022-10-22T00:22:12.111Z,0.00
2022-10-22T00:23:11.941Z,0.00
2022-10-22T00:24:11.931Z,0.00
2022-10-22T00:25:11.912Z,0.00
2022-10-22T00:26:11.920Z,0.00
2022-10-22T00:27:11.905Z,0.00
2022-10-22T00:28:11.984Z,0.00
2022-10-22T00:29:11.844Z,0.00
2022-10-22T00:30:11.861Z,0.00
2022-10-22T00:31:11.908Z,0.00
2022-10-22T00:32:11.815Z,0.00
2022-10-22T00:33:11.860Z,0.00
2022-10-22T00:34:11.975Z,0.00
2022-10-22T00:35:11.773Z,0.00
2022-10-22T00:36:12.482Z,0.00
2022-10-22T00:37:12.108Z,0.00
2022-10-22T00:38:11.731Z,0.00
2022-10-22T00:39:11.905Z,0.00
2022-10-22T00:40:11.796Z,0.00
2022-10-22T00:41:11.733Z,0.00
2022-10-22T00:42:11.683Z,0.00
2022-10-22T00:43:11.681Z,0.00
2022-10-22T00:44:11.643Z,0.00
2022-10-22T00:45:11.659Z,0.00
2022-10-22T00:46:11.857Z,0.00
2022-10-22T00:47:11.657Z,0.00
2022-10-22T00:48:11.645Z,0.00
2022-10-22T00:49:11.602Z,0.00
2022-10-22T00:50:11.573Z,0.00
2022-10-22T00:51:11.884Z,0.00
2022-10-22T00:52:11.658Z,0.00
2022-10-22T00:53:11.518Z,0.00
2022-10-22T00:54:11.515Z,0.00
2022-10-22T00:55:11.506Z,0.00
2022-10-22T00:56:11.562Z,0.00
2022-10-22T00:57:11.497Z,0.00
2022-10-22T00:58:11.581Z,0.00
2022-10-22T00:59:11.463Z,0.00
2022-10-22T01:00:11.428Z,0.00
2022-10-22T01:01:11.586Z,0.00
2022-10-22T01:02:11.397Z,0.00
2022-10-22T01:03:11.407Z,0.00
2022-10-22T01:04:11.461Z,0.00
2022-10-22T01:05:11.359Z,0.00
2022-10-22T01:06:12.218Z,0.00
2022-10-22T01:07:11.327Z,0.00
2022-10-22T01:09:11.349Z,0.00
2022-10-22T01:10:11.456Z,0.00
2022-10-22T01:11:11.320Z,0.00
2022-10-22T01:12:11.252Z,0.00
2022-10-22T01:13:11.238Z,0.00
2022-10-22T01:14:11.235Z,0.00
2022-10-22T01:15:11.258Z,0.00
2022-10-22T01:16:11.291Z,0.00
2022-10-22T01:17:11.312Z,0.00
2022-10-22T01:18:11.210Z,0.00
2022-10-22T01:19:11.173Z,0.00
2022-10-22T01:20:11.176Z,0.00
2022-10-22T01:21:11.766Z,0.00
2022-10-22T01:22:11.113Z,0.00
2022-10-22T01:23:11.107Z,0.00
2022-10-22T01:24:11.093Z,0.00
2022-10-22T01:25:11.092Z,0.00
2022-10-22T01:26:11.130Z,0.00
2022-10-22T01:27:11.207Z,0.00
2022-10-22T01:28:11.042Z,0.00
2022-10-22T01:29:11.017Z,0.00
2022-10-22T01:30:11.029Z,0.00
2022-10-22T01:31:11.018Z,0.00
2022-10-22T01:32:10.973Z,0.00
2022-10-22T01:33:11.237Z,0.00
2022-10-22T01:34:10.965Z,0.00
2022-10-22T01:35:10.921Z,0.00
2022-10-22T01:36:11.645Z,0.00
2022-10-22T01:37:10.906Z,0.00
2022-10-22T01:38:10.904Z,0.00
2022-10-22T01:39:11.716Z,0.00
2022-10-22T01:40:10.864Z,0.00
2022-10-22T01:41:10.851Z,0.00
2022-10-22T01:42:10.848Z,0.00
2022-10-22T01:43:10.819Z,0.00
2022-10-22T01:44:10.999Z,0.00
2022-10-22T01:45:11.151Z,0.00
2022-10-22T01:46:10.802Z,0.00
2022-10-22T01:47:10.753Z,0.00
2022-10-22T01:48:10.776Z,0.00
2022-10-22T01:49:10.735Z,0.00
2022-10-22T01:50:10.778Z,0.00
2022-10-22T01:51:11.067Z,0.00
2022-10-22T01:52:10.704Z,0.00
2022-10-22T01:53:10.679Z,0.00
2022-10-22T01:54:10.676Z,0.00
2022-10-22T01:55:10.686Z,0.00
2022-10-22T01:56:10.667Z,0.00
2022-10-22T01:57:10.809Z,0.00
2022-10-22T01:58:10.615Z,0.00
2022-10-22T01:59:10.596Z,0.00
2022-10-22T02:00:10.590Z,0.00
2022-10-22T02:01:10.591Z,0.00
2022-10-22T02:02:11.208Z,0.00
2022-10-22T02:03:10.671Z,0.00
2022-10-22T02:04:10.537Z,0.00
2022-10-22T02:05:10.652Z,0.00
2022-10-22T02:06:10.606Z,0.00
2022-10-22T02:07:10.481Z,0.00
2022-10-22T02:08:10.471Z,0.00
2022-10-22T02:09:10.528Z,0.00
2022-10-22T02:10:10.446Z,0.00
2022-10-22T02:11:10.511Z,0.00
2022-10-22T02:12:10.442Z,0.00
2022-10-22T02:13:10.402Z,0.00
2022-10-22T02:14:10.400Z,0.00
2022-10-22T02:15:10.387Z,0.00
2022-10-22T02:16:10.370Z,0.00
2022-10-22T02:17:10.576Z,0.00
2022-10-22T02:18:10.325Z,0.00
2022-10-22T02:19:10.319Z,0.00
2022-10-22T02:20:10.299Z,0.00
2022-10-22T02:21:10.388Z,0.00
2022-10-22T02:22:10.296Z,0.00
2022-10-22T02:23:10.409Z,0.00
2022-10-22T02:24:10.268Z,0.00
2022-10-22T02:25:10.229Z,0.00
2022-10-22T02:26:10.247Z,0.00
2022-10-22T02:27:10.309Z,0.00
2022-10-22T02:28:10.204Z,0.00
2022-10-22T02:29:10.342Z,0.00
2022-10-22T02:30:10.210Z,0.00
2022-10-22T02:31:10.194Z,0.00
2022-10-22T02:32:10.165Z,0.00
2022-10-22T02:33:10.151Z,0.00
2022-10-22T02:34:10.108Z,0.00
2022-10-22T02:35:10.186Z,0.00
2022-10-22T02:36:10.283Z,0.00
2022-10-22T02:37:10.054Z,0.00
2022-10-22T02:38:10.054Z,0.00
2022-10-22T02:39:10.126Z,0.00
2022-10-22T02:40:10.044Z,0.00
2022-10-22T02:41:10.926Z,0.00
2022-10-22T02:42:10.005Z,0.00
2022-10-22T02:43:09.972Z,0.00
2022-10-22T02:44:09.974Z,0.00
2022-10-22T02:45:09.982Z,0.00
2022-10-22T02:46:09.970Z,0.00
2022-10-22T02:47:10.071Z,0.00
2022-10-22T02:48:09.958Z,0.00
2022-10-22T02:49:09.893Z,0.00
2022-10-22T02:50:10.501Z,0.00
2022-10-22T02:51:10.042Z,0.00
2022-10-22T02:52:09.851Z,0.00
2022-10-22T02:53:10.010Z,0.00
2022-10-22T02:54:09.829Z,0.00
2022-10-22T02:55:09.811Z,0.00
2022-10-22T02:56:09.817Z,0.00
2022-10-22T02:57:09.816Z,0.00
2022-10-22T02:58:09.760Z,0.00
2022-10-22T02:59:09.843Z,0.00
2022-10-22T03:00:09.743Z,0.00
2022-10-22T03:01:12.375Z,0.00
2022-10-22T03:02:10.748Z,0.00
2022-10-22T03:03:09.687Z,0.00
2022-10-22T03:04:09.687Z,0.00
2022-10-22T03:05:09.816Z,0.00
2022-10-22T03:06:09.672Z,0.00
2022-10-22T03:07:09.647Z,0.00
2022-10-22T03:08:09.666Z,0.00
2022-10-22T03:09:09.700Z,0.00
2022-10-22T03:10:09.604Z,0.00
2022-10-22T03:11:09.846Z,0.00
2022-10-22T03:12:09.573Z,0.00
2022-10-22T03:13:09.561Z,0.00
2022-10-22T03:14:09.604Z,0.00
2022-10-22T03:15:09.529Z,0.00
2022-10-22T03:16:09.503Z,0.00
2022-10-22T03:17:09.695Z,0.00
2022-10-22T03:18:09.494Z,0.00
2022-10-22T03:19:09.464Z,0.00
2022-10-22T03:20:09.509Z,0.00
2022-10-22T03:21:09.507Z,0.00
2022-10-22T03:22:09.430Z,0.00
2022-10-22T03:23:09.562Z,0.00
2022-10-22T03:24:09.390Z,0.00
2022-10-22T03:25:09.382Z,0.00
2022-10-22T03:26:09.442Z,0.00
2022-10-22T03:27:09.349Z,0.00
2022-10-22T03:28:09.355Z,0.00
2022-10-22T03:29:09.400Z,0.00
2022-10-22T03:30:09.313Z,0.00
2022-10-22T03:31:09.309Z,0.00
2022-10-22T03:32:09.342Z,0.00
2022-10-22T03:33:09.261Z,0.00
2022-10-22T03:34:09.259Z,0.00
2022-10-22T03:35:09.461Z,0.00
2022-10-22T03:36:09.307Z,0.00
2022-10-22T03:37:09.217Z,0.00
2022-10-22T03:38:09.217Z,0.00
2022-10-22T03:39:09.187Z,0.00
2022-10-22T03:40:09.187Z,0.00
2022-10-22T03:41:09.305Z,0.00
2022-10-22T03:42:09.148Z,0.00
2022-10-22T03:43:09.141Z,0.00
2022-10-22T03:44:09.177Z,0.00
2022-10-22T03:45:09.103Z,0.00
2022-10-22T03:46:09.102Z,0.00
2022-10-22T03:47:09.163Z,0.00
2022-10-22T03:48:09.054Z,0.00
2022-10-22T03:49:09.037Z,0.00
2022-10-22T03:50:09.060Z,0.00
2022-10-22T03:51:09.098Z,0.00
2022-10-22T03:52:08.994Z,0.00
2022-10-22T03:53:09.115Z,0.00
2022-10-22T03:54:09.002Z,0.00
2022-10-22T03:55:08.957Z,0.00
2022-10-22T03:56:09.107Z,0.00
2022-10-22T03:57:08.955Z,0.00
2022-10-22T03:58:08.926Z,0.00
2022-10-22T03:59:09.049Z,0.00
2022-10-22T04:00:08.901Z,0.00
2022-10-22T04:01:08.993Z,0.00
2022-10-22T04:02:08.898Z,0.00
2022-10-22T04:03:08.851Z,0.00
2022-10-22T04:04:08.820Z,0.00
2022-10-22T04:05:09.004Z,0.00
2022-10-22T04:06:08.891Z,0.00
2022-10-22T04:07:08.790Z,0.00
2022-10-22T04:08:08.803Z,0.00
2022-10-22T04:09:08.869Z,0.00
2022-10-22T04:10:08.757Z,0.00
2022-10-22T04:11:09.479Z,0.00
2022-10-22T04:12:08.709Z,0.00
2022-10-22T04:13:08.717Z,0.00
2022-10-22T04:14:08.735Z,0.00
2022-10-22T04:15:08.677Z,0.00
2022-10-22T04:16:08.680Z,0.00
2022-10-22T04:17:08.806Z,0.00
2022-10-22T04:18:08.620Z,0.00
2022-10-22T04:19:08.632Z,0.00
2022-10-22T04:20:08.716Z,0.00
2022-10-22T04:21:08.603Z,0.00
2022-10-22T04:22:08.580Z,0.00
2022-10-22T04:23:08.712Z,0.00
2022-10-22T04:24:08.540Z,0.00
2022-10-22T04:25:08.724Z,0.00
2022-10-22T04:26:08.552Z,0.00
2022-10-22T04:27:08.509Z,0.00
2022-10-22T04:28:08.491Z,0.00
2022-10-22T04:29:11.878Z,0.00
2022-10-22T04:30:09.587Z,0.00
2022-10-22T04:31:08.524Z,0.00
2022-10-22T04:32:08.471Z,0.00
2022-10-22T04:33:08.437Z,0.00
2022-10-22T04:34:08.418Z,0.00
2022-10-22T04:35:08.536Z,0.00
2022-10-22T04:36:08.667Z,0.00
2022-10-22T04:37:08.362Z,0.00
2022-10-22T04:38:08.377Z,0.00
2022-10-22T04:39:08.354Z,0.00
2022-10-22T04:40:09.289Z,0.00
2022-10-22T04:41:08.325Z,0.00
2022-10-22T04:42:08.488Z,0.00
2022-10-22T04:43:08.286Z,0.00
2022-10-22T04:44:12.222Z,0.00
2022-10-22T04:45:09.350Z,0.00
2022-10-22T04:46:08.298Z,0.00
2022-10-22T04:47:08.233Z,0.00
2022-10-22T04:48:08.368Z,0.00
2022-10-22T04:49:08.209Z,0.00
2022-10-22T04:50:08.218Z,0.00
2022-10-22T04:51:08.198Z,0.00
2022-10-22T04:52:08.155Z,0.00
2022-10-22T04:53:08.164Z,0.00
2022-10-22T04:54:08.255Z,0.00
2022-10-22T04:55:08.127Z,0.00
2022-10-22T04:56:08.137Z,0.00
2022-10-22T04:57:08.092Z,0.00
2022-10-22T04:58:08.065Z,0.00
2022-10-22T04:59:08.070Z,0.00
2022-10-22T05:00:08.262Z,0.00
2022-10-22T05:01:08.082Z,0.00
2022-10-22T05:02:08.084Z,0.00
2022-10-22T05:03:08.014Z,0.00
2022-10-22T05:04:07.980Z,0.00
2022-10-22T05:05:08.065Z,0.00
2022-10-22T05:06:08.179Z,0.00
2022-10-22T05:07:07.946Z,0.00
2022-10-22T05:08:07.941Z,0.00
2022-10-22T05:09:07.957Z,0.00
2022-10-22T05:10:07.903Z,0.00
2022-10-22T05:11:07.890Z,0.00
2022-10-22T05:12:07.975Z,0.00
2022-10-22T05:13:07.889Z,0.00
2022-10-22T05:14:07.887Z,0.00
2022-10-22T05:15:07.839Z,0.00
2022-10-22T05:16:08.537Z,0.00
2022-10-22T05:17:07.789Z,0.00
2022-10-22T05:18:07.919Z,0.00
2022-10-22T05:19:07.766Z,0.00
2022-10-22T05:20:07.787Z,0.00
2022-10-22T05:21:07.920Z,0.00
2022-10-22T05:22:07.731Z,0.00
2022-10-22T05:23:07.716Z,0.00
2022-10-22T05:24:07.807Z,0.00
2022-10-22T05:25:07.688Z,0.00
2022-10-22T05:26:07.726Z,0.00
2022-10-22T05:27:07.722Z,0.00
2022-10-22T05:28:07.652Z,0.00
2022-10-22T05:29:07.636Z,0.00
2022-10-22T05:30:07.714Z,0.00
2022-10-22T05:31:07.605Z,0.00
2022-10-22T05:32:07.616Z,0.00
2022-10-22T05:33:07.563Z,0.00
2022-10-22T05:34:07.562Z,0.00
2022-10-22T05:35:07.553Z,0.00
2022-10-22T05:36:07.684Z,0.00
2022-10-22T05:37:07.515Z,0.00
2022-10-22T05:38:07.544Z,0.00
2022-10-22T05:39:07.507Z,0.00
2022-10-22T05:40:19.422Z,0.00
2022-10-22T05:41:08.608Z,0.00
2022-10-22T05:42:07.462Z,0.00
2022-10-22T05:43:07.430Z,0.00
2022-10-22T05:44:07.463Z,0.00
2022-10-22T05:45:07.418Z,0.00
2022-10-22T05:46:07.633Z,0.00
2022-10-22T05:47:07.583Z,0.00
2022-10-22T05:48:07.369Z,0.00
2022-10-22T05:49:07.363Z,0.00
2022-10-22T05:50:07.394Z,0.00
2022-10-22T05:51:07.747Z,0.00
2022-10-22T05:52:07.299Z,0.00
2022-10-22T05:53:07.444Z,0.00
2022-10-22T05:54:07.274Z,0.00
2022-10-22T05:55:07.259Z,0.00
2022-10-22T05:56:07.341Z,0.00
2022-10-22T05:57:07.230Z,0.00
2022-10-22T05:58:07.223Z,0.00
2022-10-22T05:59:07.342Z,0.00
2022-10-22T06:00:07.207Z,0.00
2022-10-22T06:01:07.421Z,0.00
2022-10-22T06:02:07.240Z,0.00
2022-10-22T06:03:07.151Z,0.00
2022-10-22T06:04:07.196Z,0.00
2022-10-22T06:05:07.219Z,0.00
2022-10-22T06:06:07.234Z,0.00
2022-10-22T06:07:07.103Z,0.00
2022-10-22T06:08:07.248Z,0.00
2022-10-22T06:09:07.163Z,0.00
2022-10-22T06:10:07.865Z,0.00
2022-10-22T06:11:07.193Z,0.00
2022-10-22T06:12:07.074Z,0.00
2022-10-22T06:13:07.066Z,0.00
2022-10-22T06:14:07.094Z,0.00
2022-10-22T06:15:07.617Z,0.00
2022-10-22T06:16:07.124Z,4.00
2022-10-22T06:17:07.131Z,4.00
2022-10-22T06:18:07.082Z,0.00
2022-10-22T06:19:06.965Z,0.00
2022-10-22T06:20:07.060Z,0.00
2022-10-22T06:21:06.966Z,4.00
2022-10-22T06:22:06.955Z,4.00
2022-10-22T06:23:07.051Z,4.00
2022-10-22T06:24:06.839Z,4.00
2022-10-22T06:25:06.845Z,4.00
2022-10-22T06:26:06.862Z,4.00
2022-10-22T06:27:06.822Z,4.00
2022-10-22T06:28:06.808Z,4.00
2022-10-22T06:29:07.009Z,4.00
2022-10-22T06:30:07.707Z,4.00
2022-10-22T06:31:06.785Z,4.00
2022-10-22T06:32:06.759Z,4.00
2022-10-22T06:33:06.735Z,8.00
2022-10-22T06:34:06.717Z,8.00
2022-10-22T06:35:06.929Z,8.00
2022-10-22T06:36:07.892Z,8.00
2022-10-22T06:37:06.707Z,8.00
2022-10-22T06:38:06.706Z,4.00
2022-10-22T06:39:06.657Z,8.00
2022-10-22T06:40:06.646Z,8.00
2022-10-22T06:41:07.991Z,8.00
2022-10-22T06:42:06.583Z,8.00
2022-10-22T06:43:07.282Z,8.00
2022-10-22T06:44:06.598Z,12.00
2022-10-22T06:45:06.568Z,12.00
2022-10-22T06:46:06.613Z,12.00
2022-10-22T06:47:06.636Z,12.00
2022-10-22T06:48:06.512Z,16.00
2022-10-22T06:49:06.517Z,16.00
2022-10-22T06:50:06.512Z,20.00
2022-10-22T06:51:06.515Z,20.00
2022-10-22T06:52:06.458Z,20.00
2022-10-22T06:53:07.261Z,20.00
2022-10-22T06:54:06.428Z,24.00
2022-10-22T06:55:06.431Z,28.00
2022-10-22T06:56:06.444Z,32.00
2022-10-22T06:57:06.385Z,32.00
2022-10-22T06:58:06.409Z,36.00
2022-10-22T06:59:06.517Z,40.00
2022-10-22T07:00:06.355Z,44.00
2022-10-22T07:01:06.405Z,44.00
2022-10-22T07:02:06.426Z,48.00
2022-10-22T07:03:06.386Z,52.00
2022-10-22T07:04:06.284Z,52.00
2022-10-22T07:05:06.392Z,60.00
2022-10-22T07:06:06.283Z,64.00
2022-10-22T07:07:06.282Z,68.00
2022-10-22T07:08:06.328Z,72.00
2022-10-22T07:09:06.356Z,68.00
2022-10-22T07:10:06.203Z,80.00
2022-10-22T07:11:06.337Z,80.00
2022-10-22T07:12:06.189Z,84.00
2022-10-22T07:13:06.185Z,84.00
2022-10-22T07:14:06.338Z,84.00
2022-10-22T07:15:06.198Z,84.00
2022-10-22T07:16:06.135Z,84.00
2022-10-22T07:17:06.205Z,88.00
2022-10-22T07:18:06.303Z,88.00
2022-10-22T07:19:06.082Z,88.00
2022-10-22T07:20:06.101Z,88.00
2022-10-22T07:21:06.100Z,108.00
2022-10-22T07:22:06.036Z,92.00
2022-10-22T07:23:06.253Z,96.00
2022-10-22T07:24:06.020Z,92.00
2022-10-22T07:25:07.318Z,92.00
2022-10-22T07:26:10.340Z,92.00
2022-10-22T07:27:09.387Z,92.00
2022-10-22T07:28:07.127Z,92.00
2022-10-22T07:29:05.941Z,96.00
2022-10-22T07:30:05.946Z,96.00
2022-10-22T07:31:05.911Z,100.00
2022-10-22T07:32:05.929Z,104.00
2022-10-22T07:33:05.878Z,104.00
2022-10-22T07:34:05.977Z,112.00
2022-10-22T07:35:05.879Z,116.00
2022-10-22T07:36:05.855Z,124.00
2022-10-22T07:37:05.824Z,144.00
2022-10-22T07:38:05.847Z,152.00
2022-10-22T07:39:05.801Z,168.00
2022-10-22T07:40:05.884Z,168.00
2022-10-22T07:41:05.788Z,228.00
2022-10-22T07:42:05.764Z,268.00
2022-10-22T07:43:05.741Z,252.00
2022-10-22T07:44:05.763Z,252.00
2022-10-22T07:45:05.721Z,268.00
2022-10-22T07:46:05.915Z,264.00
2022-10-22T07:47:05.697Z,236.00
2022-10-22T07:48:05.670Z,228.00
2022-10-22T07:49:05.657Z,216.00
2022-10-22T07:50:05.684Z,200.00
2022-10-22T07:51:05.651Z,196.00
2022-10-22T07:52:05.767Z,200.00
2022-10-22T07:53:05.602Z,248.00
2022-10-22T07:54:05.578Z,196.00
2022-10-22T07:55:05.591Z,196.00
2022-10-22T07:56:05.609Z,240.00
2022-10-22T07:57:05.543Z,220.00
2022-10-22T07:58:05.703Z,256.00
2022-10-22T07:59:05.522Z,260.00
2022-10-22T08:00:05.550Z,312.00
2022-10-22T08:01:05.650Z,280.00
2022-10-22T08:02:05.506Z,340.00
2022-10-22T08:03:05.461Z,352.00
2022-10-22T08:04:05.603Z,308.00
2022-10-22T08:05:05.483Z,348.00
2022-10-22T08:06:05.447Z,336.00
2022-10-22T08:07:05.409Z,344.00
2022-10-22T08:08:05.477Z,360.00
2022-10-22T08:09:05.463Z,380.00
2022-10-22T08:10:05.521Z,404.00
2022-10-22T08:11:05.353Z,436.00
2022-10-22T08:12:05.343Z,448.00
2022-10-22T08:13:05.340Z,460.00
2022-10-22T08:14:05.372Z,432.00
2022-10-22T08:15:05.302Z,432.00
2022-10-22T08:16:05.452Z,440.00
2022-10-22T08:17:05.294Z,400.00
2022-10-22T08:18:05.271Z,532.00
2022-10-22T08:19:05.260Z,324.00
2022-10-22T08:20:41.035Z,256.00
2022-10-22T08:21:37.818Z,420.00
2022-10-22T08:22:37.777Z,452.00
2022-10-22T08:23:37.623Z,508.00
2022-10-22T08:24:37.736Z,352.00
2022-10-22T08:25:37.600Z,252.00
2022-10-22T08:26:39.996Z,284.00
2022-10-22T08:27:37.580Z,312.00
2022-10-22T08:28:39.427Z,324.00
2022-10-22T08:29:37.531Z,328.00
2022-10-22T08:30:38.328Z,324.00
2022-10-22T08:31:37.491Z,364.00
2022-10-22T08:32:38.029Z,344.00
2022-10-22T08:33:37.482Z,380.00
2022-10-22T08:34:38.759Z,352.00
2022-10-22T08:35:37.455Z,372.00
2022-10-22T08:36:37.570Z,352.00
2022-10-22T08:37:37.427Z,320.00
2022-10-22T08:38:38.943Z,340.00
2022-10-22T08:39:37.396Z,300.00
2022-10-22T08:40:38.799Z,288.00
2022-10-22T08:41:37.383Z,284.00
2022-10-22T08:42:37.806Z,304.00
2022-10-22T08:43:37.337Z,324.00
2022-10-22T08:44:37.608Z,408.00
2022-10-22T08:45:37.321Z,504.00
2022-10-22T08:46:38.210Z,468.00
2022-10-22T08:47:37.279Z,484.00
2022-10-22T08:48:37.449Z,532.00
2022-10-22T08:49:39.837Z,568.00
2022-10-22T08:50:39.570Z,628.00
2022-10-22T08:51:37.233Z,576.00
2022-10-22T08:52:37.391Z,704.00
2022-10-22T08:53:37.256Z,768.00
2022-10-22T08:54:37.394Z,768.00
2022-10-22T08:55:37.513Z,768.00
2022-10-22T08:56:37.693Z,768.00
2022-10-22T08:57:37.170Z,768.00
2022-10-22T08:58:37.503Z,764.00
2022-10-22T08:59:37.119Z,764.00
2022-10-22T09:00:39.110Z,760.00
2022-10-22T09:01:37.114Z,768.00
2022-10-22T09:02:38.794Z,764.00
2022-10-22T09:03:37.065Z,764.00
2022-10-22T09:04:39.811Z,768.00
2022-10-22T09:05:37.114Z,768.00
2022-10-22T09:06:37.221Z,772.00
2022-10-22T09:07:36.999Z,776.00
2022-10-22T09:08:38.095Z,768.00
2022-10-22T09:09:36.972Z,772.00
2022-10-22T09:10:37.022Z,768.00
2022-10-22T09:11:36.946Z,772.00
2022-10-22T09:12:36.953Z,772.00
2022-10-22T09:13:36.914Z,776.00
2022-10-22T09:14:37.182Z,772.00
2022-10-22T09:15:36.881Z,776.00
2022-10-22T09:16:36.964Z,780.00
2022-10-22T09:17:36.860Z,780.00
2022-10-22T09:18:36.982Z,784.00
2022-10-22T09:19:36.827Z,788.00
2022-10-22T09:20:37.156Z,796.00
2022-10-22T09:21:36.820Z,792.00
2022-10-22T09:22:36.887Z,804.00
2022-10-22T09:23:36.794Z,812.00
2022-10-22T09:24:36.831Z,804.00
2022-10-22T09:25:36.754Z,804.00
2022-10-22T09:26:37.286Z,804.00
2022-10-22T09:27:36.727Z,804.00
2022-10-22T09:28:36.802Z,800.00
2022-10-22T09:29:36.698Z,804.00
2022-10-22T09:30:36.814Z,808.00
2022-10-22T09:31:36.708Z,804.00
2022-10-22T09:32:36.905Z,812.00
2022-10-22T09:33:36.716Z,812.00
2022-10-22T09:34:36.883Z,812.00
2022-10-22T09:35:36.646Z,816.00
2022-10-22T09:36:36.869Z,820.00
2022-10-22T09:37:36.649Z,820.00
2022-10-22T09:38:36.865Z,828.00
2022-10-22T09:39:36.555Z,832.00
2022-10-22T09:40:37.533Z,832.00
2022-10-22T09:41:36.638Z,836.00
2022-10-22T09:42:37.095Z,836.00
2022-10-22T09:43:36.547Z,840.00
2022-10-22T09:44:36.851Z,836.00
2022-10-22T09:45:36.541Z,832.00
2022-10-22T09:46:36.880Z,836.00
2022-10-22T09:47:43.603Z,836.00
2022-10-22T09:48:38.382Z,832.00
2022-10-22T09:49:36.473Z,828.00
2022-10-22T09:50:36.642Z,824.00
2022-10-22T09:51:36.457Z,816.00
2022-10-22T09:52:36.449Z,820.00
2022-10-22T09:53:36.430Z,820.00
2022-10-22T09:54:36.436Z,816.00
2022-10-22T09:55:36.400Z,816.00
2022-10-22T09:56:38.225Z,820.00
2022-10-22T09:57:38.769Z,816.00
2022-10-22T09:58:36.429Z,820.00
2022-10-22T09:59:37.053Z,820.00
2022-10-22T10:00:37.439Z,824.00
2022-10-22T10:01:36.266Z,828.00
2022-10-22T10:02:38.203Z,836.00
2022-10-22T10:03:36.251Z,836.00
2022-10-22T10:04:36.560Z,836.00
2022-10-22T10:05:37.020Z,836.00
2022-10-22T10:06:36.261Z,840.00
2022-10-22T10:07:36.181Z,832.00
2022-10-22T10:08:36.781Z,836.00
2022-10-22T10:09:36.225Z,832.00
2022-10-22T10:10:36.244Z,828.00
2022-10-22T10:11:36.179Z,836.00
2022-10-22T10:12:36.424Z,828.00
2022-10-22T10:13:36.145Z,828.00
2022-10-22T10:14:36.462Z,828.00
2022-10-22T10:15:36.077Z,824.00
2022-10-22T10:16:36.127Z,824.00
2022-10-22T10:17:36.053Z,832.00
2022-10-22T10:18:36.176Z,828.00
2022-10-22T10:19:36.012Z,840.00
2022-10-22T10:20:36.328Z,856.00
2022-10-22T10:21:36.032Z,880.00
2022-10-22T10:22:36.189Z,904.00
2022-10-22T10:23:35.965Z,928.00
2022-10-22T10:24:36.226Z,948.00
2022-10-22T10:25:36.051Z,948.00
2022-10-22T10:26:36.092Z,952.00
2022-10-22T10:27:35.974Z,960.00
2022-10-22T10:28:35.980Z,960.00
2022-10-22T10:30:36.013Z,988.00
2022-10-22T10:31:35.946Z,964.00
2022-10-22T10:32:36.592Z,968.00
2022-10-22T10:33:35.819Z,956.00
2022-10-22T10:34:36.949Z,952.00
2022-10-22T10:35:35.795Z,952.00
2022-10-22T10:36:36.898Z,944.00
2022-10-22T10:37:35.778Z,948.00
2022-10-22T10:38:36.133Z,936.00
2022-10-22T10:39:35.750Z,920.00
2022-10-22T10:40:36.698Z,904.00
2022-10-22T10:41:35.767Z,892.00
2022-10-22T10:42:35.759Z,872.00
2022-10-22T10:43:35.706Z,868.00
2022-10-22T10:44:36.034Z,872.00
2022-10-22T10:45:35.668Z,876.00
2022-10-22T10:46:37.171Z,776.00
2022-10-22T10:47:35.647Z,852.00
2022-10-22T10:48:35.655Z,844.00
2022-10-22T10:49:35.628Z,840.00
2022-10-22T10:50:35.865Z,828.00
2022-10-22T10:51:35.857Z,844.00
2022-10-22T10:52:36.224Z,844.00
2022-10-22T10:53:35.561Z,852.00
2022-10-22T10:54:35.715Z,852.00
2022-10-22T10:55:35.525Z,840.00
2022-10-22T10:56:38.366Z,852.00
2022-10-22T10:57:35.512Z,840.00
2022-10-22T10:58:36.221Z,840.00
2022-10-22T10:59:35.462Z,604.00
2022-10-22T11:00:36.545Z,848.00
2022-10-22T11:01:35.500Z,304.00
2022-10-22T11:02:35.607Z,884.00
2022-10-22T11:03:35.416Z,864.00
2022-10-22T11:04:35.690Z,864.00
2022-10-22T11:05:35.380Z,868.00
2022-10-22T11:06:35.535Z,880.00
2022-10-22T11:07:35.431Z,852.00
2022-10-22T11:08:36.223Z,876.00
2022-10-22T11:09:35.376Z,884.00
2022-10-22T11:10:35.707Z,884.00
2022-10-22T11:11:35.329Z,888.00
2022-10-22T11:12:36.473Z,864.00
2022-10-22T11:13:35.285Z,852.00
2022-10-22T11:14:35.755Z,856.00
2022-10-22T11:15:35.525Z,848.00
2022-10-22T11:16:35.506Z,848.00
2022-10-22T11:17:35.226Z,848.00
2022-10-22T11:18:35.722Z,852.00
2022-10-22T11:19:52.964Z,844.00
2022-10-22T11:20:37.082Z,824.00
2022-10-22T11:21:35.206Z,724.00
2022-10-22T11:22:35.322Z,716.00
2022-10-22T11:23:35.172Z,720.00
2022-10-22T11:24:35.264Z,720.00
2022-10-22T11:25:35.133Z,712.00
2022-10-22T11:26:35.640Z,700.00
2022-10-22T11:27:35.118Z,704.00
2022-10-22T11:28:35.123Z,716.00
2022-10-22T11:29:35.067Z,716.00
2022-10-22T11:30:35.883Z,728.00
2022-10-22T11:31:35.073Z,748.00
2022-10-22T11:32:36.353Z,764.00
2022-10-22T11:33:35.017Z,780.00
2022-10-22T11:34:35.498Z,808.00
2022-10-22T11:35:34.983Z,824.00
2022-10-22T11:36:35.569Z,844.00
2022-10-22T11:37:34.985Z,852.00
2022-10-22T11:38:36.250Z,860.00
2022-10-22T11:39:34.925Z,652.00
2022-10-22T11:40:35.516Z,484.00
2022-10-22T11:41:35.013Z,456.00
2022-10-22T11:42:35.113Z,472.00
2022-10-22T11:43:34.877Z,412.00
2022-10-22T11:44:35.044Z,540.00
2022-10-22T11:45:34.846Z,464.00
2022-10-22T11:46:35.859Z,524.00
2022-10-22T11:47:34.818Z,408.00
2022-10-22T11:48:35.776Z,856.00
2022-10-22T11:49:34.784Z,484.00
2022-10-22T11:50:35.228Z,500.00
2022-10-22T11:51:34.773Z,412.00
2022-10-22T11:52:35.317Z,448.00
2022-10-22T11:53:34.752Z,344.00
2022-10-22T11:54:34.990Z,728.00
2022-10-22T11:55:34.714Z,840.00
2022-10-22T11:56:36.114Z,764.00
2022-10-22T11:57:34.688Z,808.00
2022-10-22T11:58:37.003Z,780.00
2022-10-22T11:59:34.655Z,756.00
2022-10-22T12:00:35.736Z,792.00
2022-10-22T12:02:35.263Z,760.00
2022-10-22T12:03:34.637Z,760.00
2022-10-22T12:04:35.698Z,732.00
2022-10-22T12:05:34.596Z,748.00
2022-10-22T12:06:34.871Z,744.00
2022-10-22T12:07:34.544Z,740.00
2022-10-22T12:08:34.869Z,748.00
2022-10-22T12:09:34.563Z,740.00
2022-10-22T12:10:35.694Z,724.00
2022-10-22T12:11:34.485Z,716.00
2022-10-22T12:12:35.749Z,716.00
2022-10-22T12:13:34.456Z,700.00
2022-10-22T12:14:35.065Z,696.00
2022-10-22T12:15:34.472Z,696.00
2022-10-22T12:16:55.214Z,696.00
2022-10-22T12:17:35.402Z,684.00
2022-10-22T12:18:35.267Z,684.00
2022-10-22T12:19:34.375Z,680.00
2022-10-22T12:20:36.110Z,676.00
2022-10-22T12:21:34.362Z,668.00
2022-10-22T12:22:35.286Z,660.00
2022-10-22T12:23:34.331Z,664.00
2022-10-22T12:24:34.803Z,652.00
2022-10-22T12:25:35.863Z,664.00
2022-10-22T12:26:34.733Z,656.00
2022-10-22T12:27:34.345Z,652.00
2022-10-22T12:28:35.136Z,664.00
2022-10-22T12:29:34.251Z,660.00
2022-10-22T12:30:36.560Z,656.00
2022-10-22T12:31:34.266Z,664.00
2022-10-22T12:32:35.648Z,696.00
2022-10-22T12:33:34.192Z,708.00
2022-10-22T12:34:34.828Z,676.00
2022-10-22T12:35:34.197Z,664.00
2022-10-22T12:36:35.936Z,664.00
2022-10-22T12:37:34.153Z,664.00
2022-10-22T12:38:35.649Z,660.00
2022-10-22T12:39:34.103Z,660.00
2022-10-22T12:40:35.722Z,672.00
2022-10-22T12:41:34.082Z,684.00
2022-10-22T12:42:35.366Z,680.00
2022-10-22T12:43:34.137Z,684.00
2022-10-22T12:44:35.044Z,684.00
2022-10-22T12:45:34.009Z,672.00
2022-10-22T12:46:35.041Z,668.00
2022-10-22T12:47:34.140Z,668.00
2022-10-22T12:48:34.916Z,668.00
2022-10-22T12:49:33.991Z,664.00
2022-10-22T12:50:37.762Z,676.00
2022-10-22T12:51:34.027Z,668.00
2022-10-22T12:52:34.714Z,628.00
2022-10-22T12:53:34.214Z,692.00
2022-10-22T12:54:34.942Z,684.00
2022-10-22T12:55:33.897Z,656.00
2022-10-22T12:56:35.687Z,660.00
2022-10-22T12:57:33.866Z,652.00
2022-10-22T12:58:35.020Z,648.00